Time;durP1;ratioP1;P1;durP2;ratioP2;P2;SDS_P1;SDS_P2;PMS_P1;PMS_P2;Temp;Humidity;BMP_temperature;BMP_pressure;BME280_temperature;BME280_humidity;BME280_pressure;Samples;Min_cycle;Max_cycle;Signal;HPM_P1;HPM_P2
2022/08/28 00:02:14;;;;;;;9.68;5.20;;;19.40;99.90;;;;;;5073032;28;20247;-83
2022/08/28 00:04:42;;;;;;;5.75;5.25;;;19.40;99.90;;;;;;5072743;28;20221;-83
2022/08/28 00:07:12;;;;;;;6.47;5.75;;;19.40;99.90;;;;;;5073097;28;20280;-83
2022/08/28 00:09:41;;;;;;;5.22;4.72;;;19.50;99.90;;;;;;5072748;28;20205;-83
2022/08/28 00:12:11;;;;;;;4.80;4.40;;;19.50;99.90;;;;;;5072920;28;20307;-82
2022/08/28 00:14:39;;;;;;;4.78;4.38;;;19.50;99.90;;;;;;5072998;28;20195;-82
2022/08/28 00:17:07;;;;;;;4.50;4.15;;;19.50;99.90;;;;;;5073056;28;20300;-83
2022/08/28 00:19:36;;;;;;;4.50;4.20;;;19.50;99.90;;;;;;5072319;28;20212;-83
2022/08/28 00:22:06;;;;;;;4.47;3.65;;;19.50;99.90;;;;;;5072780;28;20225;-83
2022/08/28 00:24:36;;;;;;;4.40;3.60;;;19.50;99.90;;;;;;5072665;28;20288;-83
2022/08/28 00:29:50;;;;;;;4.57;3.72;;;19.50;99.90;;;;;;5072820;28;20280;-83
2022/08/28 00:32:22;;;;;;;5.65;4.07;;;19.50;99.90;;;;;;5072317;28;20237;-83
2022/08/28 00:34:50;;;;;;;3.05;2.85;;;19.60;99.90;;;;;;5072574;28;20287;-83
2022/08/28 00:37:19;;;;;;;3.65;3.33;;;19.60;99.90;;;;;;5072600;28;20204;-82
2022/08/28 00:39:53;;;;;;;4.43;3.45;;;19.60;99.90;;;;;;5072170;28;20265;-83
2022/08/28 00:42:21;;;;;;;7.13;3.60;;;19.60;99.90;;;;;;5072492;28;20228;-82
2022/08/28 00:44:50;;;;;;;3.97;3.67;;;19.60;99.90;;;;;;5072538;28;20323;-82
2022/08/28 00:47:18;;;;;;;4.97;3.83;;;19.70;99.90;;;;;;5072792;28;20300;-83
2022/08/28 00:49:51;;;;;;;3.45;3.15;;;19.60;99.90;;;;;;5072244;28;20205;-83
2022/08/28 00:52:20;;;;;;;3.33;3.13;;;19.70;99.90;;;;;;5072437;28;20229;-84
2022/08/28 00:54:52;;;;;;;3.85;3.45;;;19.60;99.90;;;;;;5072588;28;20296;-83
2022/08/28 00:57:30;;;;;;;3.58;3.28;;;19.60;99.90;;;;;;5072603;28;20197;-84
2022/08/28 00:59:59;;;;;;;5.50;4.30;;;19.70;99.90;;;;;;5072299;28;20262;-83
2022/08/28 01:02:27;;;;;;;3.88;3.58;;;19.70;99.90;;;;;;5072522;28;20217;-83
2022/08/28 01:04:56;;;;;;;4.28;3.88;;;19.70;99.90;;;;;;5072011;28;22109;-83
2022/08/28 01:07:24;;;;;;;5.57;3.72;;;19.70;99.90;;;;;;5072674;28;20299;-83
2022/08/28 01:09:54;;;;;;;4.15;3.85;;;19.70;99.90;;;;;;5072763;28;20268;-83
2022/08/28 01:12:25;;;;;;;4.30;4.00;;;19.70;99.90;;;;;;5072198;28;20284;-83
2022/08/28 01:14:58;;;;;;;4.07;3.72;;;19.70;99.90;;;;;;5072244;28;20261;-83
2022/08/28 01:17:31;;;;;;;5.07;4.63;;;19.70;99.90;;;;;;5072014;28;20285;-83
2022/08/28 01:20:02;;;;;;;4.63;4.22;;;19.70;99.90;;;;;;5072166;28;20205;-83
2022/08/28 01:22:36;;;;;;;4.20;3.20;;;19.70;99.90;;;;;;5072349;28;20235;-83
2022/08/28 01:25:10;;;;;;;4.10;3.80;;;19.70;99.90;;;;;;5074462;28;20213;-84
2022/08/28 01:27:40;;;;;;;4.35;4.00;;;19.70;99.90;;;;;;5076056;28;20273;-83
2022/08/28 01:30:11;;;;;;;4.20;3.80;;;19.70;99.90;;;;;;5076205;28;20216;-84
2022/08/28 01:32:42;;;;;;;4.25;3.85;;;19.70;99.90;;;;;;5075723;28;20241;-83
2022/08/28 01:35:14;;;;;;;4.13;3.75;;;19.70;99.90;;;;;;5076082;28;20209;-83
2022/08/28 01:37:43;;;;;;;3.65;3.30;;;19.70;99.90;;;;;;5076510;28;20205;-84
2022/08/28 01:40:17;;;;;;;7.20;4.05;;;19.70;99.90;;;;;;5075757;28;20205;-84
2022/08/28 01:42:46;;;;;;;4.20;3.90;;;19.70;99.90;;;;;;5075512;28;20221;-84
2022/08/28 01:45:16;;;;;;;4.57;4.05;;;19.70;99.90;;;;;;5075754;28;20324;-84
2022/08/28 01:47:46;;;;;;;4.35;3.75;;;19.70;99.90;;;;;;5075765;28;20248;-84
2022/08/28 01:50:20;;;;;;;4.10;3.80;;;19.60;99.90;;;;;;5075666;28;20279;-84
2022/08/28 01:52:49;;;;;;;3.80;3.50;;;19.60;99.90;;;;;;5075916;28;20305;-84
2022/08/28 01:55:18;;;;;;;4.28;3.92;;;19.60;99.90;;;;;;5075594;28;20239;-84
2022/08/28 01:57:52;;;;;;;3.70;3.40;;;19.60;99.90;;;;;;5075635;28;20209;-86
2022/08/28 02:00:24;;;;;;;3.53;3.25;;;19.60;99.90;;;;;;5075253;28;20237;-86
2022/08/28 02:02:54;;;;;;;4.15;3.72;;;19.60;99.90;;;;;;5075432;28;20289;-86
2022/08/28 02:05:24;;;;;;;3.83;3.50;;;19.60;99.90;;;;;;5075532;28;20292;-87
2022/08/28 02:07:52;;;;;;;4.10;3.70;;;19.70;99.90;;;;;;5075116;28;20205;-87
2022/08/28 02:10:24;;;;;;;3.65;3.35;;;19.70;99.90;;;;;;5075152;28;20320;-87
2022/08/28 02:12:55;;;;;;;3.00;2.78;;;19.70;99.90;;;;;;5075288;28;20235;-86
2022/08/28 02:15:29;;;;;;;6.88;3.30;;;19.60;99.90;;;;;;5074956;28;20300;-87
2022/08/28 02:17:57;;;;;;;4.03;3.47;;;19.60;99.90;;;;;;5075264;28;20201;-87
2022/08/28 02:20:26;;;;;;;3.38;3.08;;;19.70;99.90;;;;;;5075391;28;20296;-86
2022/08/28 02:22:56;;;;;;;3.25;2.95;;;19.70;99.90;;;;;;5075235;28;20249;-86
2022/08/28 02:25:27;;;;;;;15.85;3.08;;;19.60;99.90;;;;;;5075185;28;20300;-86
2022/08/28 02:27:56;;;;;;;2.92;2.72;;;19.60;99.90;;;;;;5075051;28;20240;-86
2022/08/28 02:30:24;;;;;;;3.47;3.13;;;19.60;99.90;;;;;;5075035;28;20227;-86
2022/08/28 02:32:53;;;;;;;3.40;3.10;;;19.60;99.90;;;;;;5074890;28;20229;-86
2022/08/28 02:35:23;;;;;;;2.88;2.67;;;19.60;99.90;;;;;;5074689;28;20208;-87
2022/08/28 02:37:52;;;;;;;4.85;2.63;;;19.50;99.90;;;;;;5074379;28;20229;-87
2022/08/28 02:40:25;;;;;;;3.78;2.67;;;19.50;99.90;;;;;;5074402;28;20212;-87
2022/08/28 02:42:53;;;;;;;3.22;2.88;;;19.50;99.90;;;;;;5074834;28;20221;-87
2022/08/28 02:45:21;;;;;;;2.88;2.67;;;19.50;99.90;;;;;;5075038;28;20205;-87
2022/08/28 02:47:52;;;;;;;3.45;3.15;;;19.40;99.90;;;;;;5074890;28;20297;-87
2022/08/28 02:50:21;;;;;;;3.17;2.97;;;19.40;99.90;;;;;;5074566;28;20295;-86
2022/08/28 02:52:49;;;;;;;3.17;2.95;;;19.30;99.90;;;;;;5074352;28;20325;-87
2022/08/28 02:55:19;;;;;;;4.50;3.53;;;19.40;99.90;;;;;;5076382;28;20220;-86
2022/08/28 02:57:49;;;;;;;3.55;3.25;;;19.40;99.90;;;;;;5088570;28;20260;-86
2022/08/28 03:00:20;;;;;;;3.92;3.58;;;19.40;99.90;;;;;;5085139;28;20224;-87
2022/08/28 03:02:50;;;;;;;2.92;2.72;;;19.40;99.90;;;;;;5074308;28;20233;-87
2022/08/28 03:05:22;;;;;;;4.78;3.20;;;19.30;99.90;;;;;;5074483;28;20201;-86
2022/08/28 03:07:52;;;;;;;7.35;3.42;;;19.30;99.90;;;;;;5073927;28;20332;-86
2022/08/28 03:10:21;;;;;;;3.00;2.80;;;19.30;99.90;;;;;;5073825;28;20288;-86
2022/08/28 03:12:51;;;;;;;4.10;3.70;;;19.40;99.90;;;;;;5074478;28;20315;-87
2022/08/28 03:15:20;;;;;;;4.78;4.25;;;19.40;99.90;;;;;;5074193;28;20217;-87
2022/08/28 03:17:49;;;;;;;4.07;3.78;;;19.40;99.90;;;;;;5074191;28;20443;-87
2022/08/28 03:20:18;;;;;;;4.40;4.10;;;19.40;99.90;;;;;;5074119;28;20262;-87
2022/08/28 03:25:32;;;;;;;4.97;4.47;;;19.50;99.90;;;;;;5074097;28;20201;-87
2022/08/28 03:28:02;;;;;;;5.07;4.63;;;19.50;99.90;;;;;;5073638;28;20309;-87
2022/08/28 03:30:30;;;;;;;4.60;4.20;;;19.60;99.90;;;;;;5073648;28;20284;-87
2022/08/28 03:32:59;;;;;;;4.90;4.50;;;19.60;99.90;;;;;;5073982;28;20240;-87
2022/08/28 03:35:28;;;;;;;5.10;4.70;;;19.60;99.90;;;;;;5073774;28;20232;-87
2022/08/28 03:37:56;;;;;;;4.75;4.35;;;19.60;99.90;;;;;;5073825;28;20206;-87
2022/08/28 03:40:24;;;;;;;5.07;4.68;;;19.70;99.90;;;;;;5073539;28;20200;-87
2022/08/28 03:42:53;;;;;;;4.88;4.50;;;19.80;99.90;;;;;;5073759;28;20229;-87
2022/08/28 03:45:23;;;;;;;5.03;4.47;;;19.80;99.90;;;;;;5073322;28;20213;-87
2022/08/28 03:47:52;;;;;;;4.85;4.45;;;19.80;99.90;;;;;;5072531;28;20225;-88
2022/08/28 03:50:21;;;;;;;5.47;5.03;;;19.80;99.90;;;;;;5073346;28;20216;-87
2022/08/28 03:52:51;;;;;;;3.97;3.67;;;19.90;99.90;;;;;;5073389;28;20254;-87
2022/08/28 03:55:19;;;;;;;5.85;5.28;;;19.90;99.90;;;;;;5073860;28;20266;-87
2022/08/28 03:57:47;;;;;;;4.40;4.00;;;19.90;99.90;;;;;;5073444;28;20296;-87
2022/08/28 04:00:16;;;;;;;6.25;4.63;;;19.90;99.90;;;;;;5073048;28;20268;-87
2022/08/28 04:02:46;;;;;;;8.93;4.70;;;19.90;99.90;;;;;;5073195;28;20225;-86
2022/08/28 04:05:14;;;;;;;5.45;5.00;;;19.90;99.90;;;;;;5072880;28;20217;-86
2022/08/28 04:07:42;;;;;;;6.22;5.03;;;20.00;99.90;;;;;;5073128;28;20225;-86
2022/08/28 04:10:12;;;;;;;5.28;4.72;;;20.00;99.90;;;;;;5073315;28;20213;-86
2022/08/28 04:12:40;;;;;;;5.32;4.82;;;20.00;99.90;;;;;;5073029;28;20259;-86
2022/08/28 04:15:10;;;;;;;5.28;4.50;;;20.00;99.90;;;;;;5073047;28;20225;-88
2022/08/28 04:17:40;;;;;;;4.40;4.10;;;20.00;99.90;;;;;;5072919;28;20280;-86
2022/08/28 04:20:11;;;;;;;5.55;5.05;;;20.10;99.90;;;;;;5072896;28;20289;-88
2022/08/28 04:22:40;;;;;;;5.68;5.15;;;20.00;99.90;;;;;;5073337;28;20289;-86
2022/08/28 04:25:09;;;;;;;5.32;4.93;;;20.10;99.90;;;;;;5073033;28;20276;-86
2022/08/28 04:27:37;;;;;;;4.55;4.25;;;20.10;99.90;;;;;;5073086;28;20268;-86
2022/08/28 04:30:08;;;;;;;7.40;4.95;;;20.20;99.90;;;;;;5072822;28;20205;-86
2022/08/28 04:32:38;;;;;;;4.25;3.92;;;20.20;99.90;;;;;;5072934;28;20225;-86
2022/08/28 04:35:11;;;;;;;5.70;5.13;;;20.20;99.90;;;;;;5072746;28;20258;-86
2022/08/28 04:37:42;;;;;;;5.30;4.80;;;20.30;99.90;;;;;;5073169;28;20259;-86
2022/08/28 04:40:13;;;;;;;7.53;4.30;;;20.30;99.90;;;;;;5072744;28;20211;-86
2022/08/28 04:42:43;;;;;;;5.00;4.60;;;20.30;99.90;;;;;;5072672;28;20235;-86
2022/08/28 04:45:12;;;;;;;5.50;4.00;;;20.30;99.90;;;;;;5072897;28;20270;-86
2022/08/28 04:47:40;;;;;;;4.53;4.22;;;20.40;99.90;;;;;;5072502;28;20228;-86
2022/08/28 04:50:11;;;;;;;4.45;4.05;;;20.40;99.90;;;;;;5072689;28;20209;-87
2022/08/28 04:52:41;;;;;;;3.97;3.67;;;20.40;99.90;;;;;;5072789;28;20332;-86
2022/08/28 04:55:10;;;;;;;4.95;4.45;;;20.30;99.90;;;;;;5072880;28;20265;-87
2022/08/28 04:57:38;;;;;;;4.53;4.10;;;20.30;99.90;;;;;;5072515;28;20254;-87
2022/08/28 05:00:09;;;;;;;4.50;4.10;;;20.30;99.90;;;;;;5074526;28;20205;-87
2022/08/28 05:02:37;;;;;;;5.70;4.32;;;20.40;99.90;;;;;;5076640;28;20255;-87
2022/08/28 05:05:06;;;;;;;4.60;4.22;;;20.40;99.90;;;;;;5076544;28;20272;-87
2022/08/28 05:07:36;;;;;;;4.03;3.72;;;20.40;99.90;;;;;;5076599;28;20225;-88
2022/08/28 05:10:04;;;;;;;4.22;3.75;;;20.40;99.90;;;;;;5076516;28;20347;-87
2022/08/28 05:12:35;;;;;;;6.05;4.40;;;20.40;99.90;;;;;;5076335;28;20228;-87
2022/08/28 05:15:04;;;;;;;5.88;4.45;;;20.30;99.90;;;;;;5076326;28;20208;-87
2022/08/28 05:17:33;;;;;;;4.75;4.35;;;20.30;99.90;;;;;;5076424;28;20201;-87
2022/08/28 05:20:01;;;;;;;4.13;3.83;;;20.30;99.90;;;;;;5076202;28;20227;-87
2022/08/28 05:22:31;;;;;;;3.85;3.55;;;20.30;99.90;;;;;;5076328;28;20224;-87
2022/08/28 05:25:01;;;;;;;4.18;3.85;;;20.30;99.90;;;;;;5076448;28;20292;-88
2022/08/28 05:27:29;;;;;;;4.55;4.15;;;20.20;99.90;;;;;;5076198;28;20220;-87
2022/08/28 05:29:58;;;;;;;4.57;4.18;;;20.20;99.90;;;;;;5075934;28;20244;-87
2022/08/28 05:32:29;;;;;;;5.15;4.72;;;20.20;99.90;;;;;;5076000;28;20236;-87
2022/08/28 05:34:57;;;;;;;4.95;4.45;;;20.10;99.90;;;;;;5076071;28;20209;-88
2022/08/28 05:37:26;;;;;;;5.95;4.60;;;20.10;99.90;;;;;;5076001;28;20295;-87
2022/08/28 05:39:54;;;;;;;4.72;4.32;;;20.10;99.90;;;;;;5075791;28;20225;-87
2022/08/28 05:42:24;;;;;;;5.50;4.90;;;20.10;99.90;;;;;;5075665;28;20225;-86
2022/08/28 05:44:58;;;;;;;5.28;4.78;;;20.10;99.90;;;;;;5076029;28;20288;-87
2022/08/28 05:47:27;;;;;;;5.13;4.65;;;20.10;99.90;;;;;;5075819;28;20211;-87
2022/08/28 05:49:55;;;;;;;6.22;4.63;;;20.10;99.90;;;;;;5075665;28;20284;-87
2022/08/28 05:52:23;;;;;;;4.20;3.88;;;20.10;99.90;;;;;;5075422;28;20257;-87
2022/08/28 05:54:52;;;;;;;5.22;4.72;;;20.10;99.90;;;;;;5075730;28;20209;-87
2022/08/28 05:57:20;;;;;;;5.82;5.32;;;20.20;99.90;;;;;;5075472;28;20283;-87
2022/08/28 05:59:50;;;;;;;6.30;4.85;;;20.20;99.90;;;;;;5075834;28;20205;-87
2022/08/28 06:02:18;;;;;;;4.40;4.10;;;20.20;99.90;;;;;;5076174;28;20219;-87
2022/08/28 06:04:47;;;;;;;5.43;5.00;;;20.20;99.90;;;;;;5075261;28;20205;-87
2022/08/28 06:07:16;;;;;;;5.18;4.78;;;20.30;99.90;;;;;;5075454;28;20229;-87
2022/08/28 06:09:44;;;;;;;4.10;3.80;;;20.30;99.90;;;;;;5075108;28;20312;-88
2022/08/28 06:12:13;;;;;;;4.28;3.88;;;20.40;99.90;;;;;;5074850;28;20304;-87
2022/08/28 06:14:41;;;;;;;5.18;4.68;;;20.40;99.90;;;;;;5075519;28;20209;-87
2022/08/28 06:17:13;;;;;;;4.43;4.03;;;20.50;99.90;;;;;;5075468;28;20205;-87
2022/08/28 06:19:41;;;;;;;5.22;4.82;;;20.50;99.90;;;;;;5075015;28;20298;-88
2022/08/28 06:22:13;;;;;;;4.68;4.20;;;20.60;99.90;;;;;;5076557;28;20263;-87
2022/08/28 06:24:42;;;;;;;4.70;4.40;;;20.60;99.90;;;;;;5076317;28;20227;-88
2022/08/28 06:27:10;;;;;;;4.43;4.13;;;20.60;99.90;;;;;;5085546;28;20278;-86
2022/08/28 06:29:38;;;;;;;4.63;4.32;;;20.60;99.90;;;;;;5098899;28;20237;-88
2022/08/28 06:32:07;;;;;;;5.45;4.22;;;20.60;99.90;;;;;;5085338;28;20228;-87
2022/08/28 06:34:38;;;;;;;4.97;4.57;;;20.60;99.90;;;;;;5075146;28;20215;-88
2022/08/28 06:37:08;;;;;;;5.90;5.30;;;20.70;99.90;;;;;;5074941;28;20309;-88
2022/08/28 06:39:36;;;;;;;4.30;4.00;;;20.70;99.90;;;;;;5074923;28;20214;-87
2022/08/28 06:42:05;;;;;;;5.22;4.72;;;20.80;99.90;;;;;;5074968;28;20236;-88
2022/08/28 06:44:34;;;;;;;5.30;4.82;;;20.80;99.90;;;;;;5074498;28;20212;-88
2022/08/28 06:47:02;;;;;;;5.65;5.15;;;20.80;99.90;;;;;;5074640;28;20227;-88
2022/08/28 06:49:30;;;;;;;5.13;4.63;;;20.80;99.90;;;;;;5074479;28;20304;-88
2022/08/28 06:52:01;;;;;;;5.22;4.82;;;20.80;99.90;;;;;;5075017;28;20232;-87
2022/08/28 06:54:29;;;;;;;4.97;4.63;;;20.90;99.90;;;;;;5074872;28;20229;-88
2022/08/28 06:56:58;;;;;;;5.72;5.15;;;20.90;99.90;;;;;;5074465;28;20486;-87
2022/08/28 06:59:26;;;;;;;5.32;4.82;;;21.00;99.90;;;;;;5074402;28;20197;-87
2022/08/28 07:01:55;;;;;;;5.60;5.10;;;21.20;99.90;;;;;;5074414;28;20221;-87
2022/08/28 07:04:23;;;;;;;6.50;5.15;;;21.30;99.90;;;;;;5074475;28;20212;-88
2022/08/28 07:06:52;;;;;;;4.90;4.60;;;21.40;99.90;;;;;;5074289;28;20288;-88
2022/08/28 07:09:24;;;;;;;6.65;5.72;;;21.60;99.90;;;;;;5074189;28;20278;-88
2022/08/28 07:11:53;;;;;;;5.97;5.30;;;21.60;99.90;;;;;;5074479;28;20263;-87
2022/08/28 07:14:22;;;;;;;5.95;5.45;;;21.70;99.90;;;;;;5074191;28;20296;-88
2022/08/28 07:16:53;;;;;;;5.13;4.63;;;21.80;99.90;;;;;;5074592;28;20269;-87
2022/08/28 07:19:21;;;;;;;6.43;5.35;;;21.90;99.90;;;;;;5074173;28;20236;-89
2022/08/28 07:21:49;;;;;;;5.75;5.32;;;22.00;99.90;;;;;;5074284;28;20225;-88
2022/08/28 07:24:19;;;;;;;7.00;5.38;;;22.10;99.90;;;;;;5074260;28;20224;-88
2022/08/28 07:26:48;;;;;;;5.45;4.95;;;22.10;99.90;;;;;;5074043;28;20292;-88
2022/08/28 07:29:17;;;;;;;6.85;6.25;;;22.10;99.90;;;;;;5073494;28;20240;-88
2022/08/28 07:31:49;;;;;;;8.27;6.50;;;22.00;99.90;;;;;;5073588;28;20217;-88
2022/08/28 07:34:20;;;;;;;5.95;5.45;;;21.90;99.90;;;;;;5073900;28;20255;-88
2022/08/28 07:36:54;;;;;;;5.78;5.00;;;21.80;99.90;;;;;;5073837;28;20205;-87
2022/08/28 07:39:23;;;;;;;6.00;5.45;;;21.90;99.90;;;;;;5073422;28;20197;-88
2022/08/28 07:41:53;;;;;;;5.60;5.15;;;21.90;99.90;;;;;;5073420;28;20225;-87
2022/08/28 07:47:10;;;;;;;6.43;5.82;;;22.00;99.90;;;;;;5073613;28;20291;-87
2022/08/28 07:49:40;;;;;;;6.15;5.65;;;22.00;99.90;;;;;;5073155;28;20308;-88
2022/08/28 07:52:09;;;;;;;7.97;5.88;;;22.00;99.90;;;;;;5073799;28;20314;-87
2022/08/28 07:54:39;;;;;;;6.78;6.07;;;22.00;99.90;;;;;;5073187;28;20297;-88
2022/08/28 07:57:10;;;;;;;7.18;6.45;;;21.90;99.90;;;;;;5073521;28;20209;-88
2022/08/28 07:59:38;;;;;;;5.93;5.43;;;21.80;99.90;;;;;;5073326;28;20260;-88
2022/08/28 08:02:10;;;;;;;6.00;5.50;;;21.80;99.90;;;;;;5073672;28;20229;-87
2022/08/28 08:04:38;;;;;;;9.07;7.15;;;21.80;99.90;;;;;;5073376;28;20256;-88
2022/08/28 08:07:07;;;;;;;7.80;7.10;;;21.70;99.90;;;;;;5073143;28;20292;-87
2022/08/28 08:09:38;;;;;;;7.90;7.13;;;21.60;99.90;;;;;;5072902;28;20307;-87
2022/08/28 08:12:08;;;;;;;8.25;7.55;;;21.50;99.90;;;;;;5073010;28;20304;-88
2022/08/28 08:14:37;;;;;;;10.32;9.07;;;21.30;99.90;;;;;;5072965;28;20232;-88
2022/08/28 08:17:06;;;;;;;11.07;9.93;;;21.00;99.90;;;;;;5072905;28;20269;-88
2022/08/28 08:19:35;;;;;;;12.57;11.32;;;20.80;99.90;;;;;;5072574;28;20232;-88
2022/08/28 08:22:04;;;;;;;12.75;10.55;;;20.60;99.90;;;;;;5072816;28;20225;-88
2022/08/28 08:24:32;;;;;;;12.13;10.88;;;20.40;99.90;;;;;;5072682;28;20273;-87
2022/08/28 08:27:02;;;;;;;11.57;10.68;;;20.20;99.90;;;;;;5073004;28;20232;-87
2022/08/28 08:29:35;;;;;;;14.35;11.77;;;20.10;99.90;;;;;;5072841;28;20241;-87
2022/08/28 08:32:06;;;;;;;14.30;12.77;;;20.00;99.90;;;;;;5072817;28;20225;-86
2022/08/28 08:34:37;;;;;;;14.43;12.93;;;20.00;99.90;;;;;;5072627;28;20300;-88
2022/08/28 08:37:06;;;;;;;14.43;13.13;;;19.90;99.90;;;;;;5072751;28;20220;-87
2022/08/28 08:39:36;;;;;;;13.70;12.27;;;19.80;99.90;;;;;;5072666;28;20292;-88
2022/08/28 08:42:09;;;;;;;19.08;13.43;;;19.80;99.90;;;;;;5072590;28;20259;-87
2022/08/28 08:44:41;;;;;;;14.05;12.75;;;19.80;99.90;;;;;;5072794;28;20292;-88
2022/08/28 08:47:13;;;;;;;13.68;12.52;;;19.80;99.90;;;;;;5072907;28;20205;-87
2022/08/28 08:49:50;;;;;;;14.38;13.05;;;20.00;99.90;;;;;;5072420;28;20225;-88
2022/08/28 08:52:46;;;;;;;15.70;12.10;;;20.10;99.90;;;;;;5072607;28;20228;-87
2022/08/28 08:55:22;;;;;;;22.23;11.63;;;20.30;99.90;;;;;;5073203;28;20287;-88
2022/08/28 08:57:56;;;;;;;12.52;11.55;;;20.40;99.90;;;;;;5072537;28;20211;-87
2022/08/28 09:00:27;;;;;;;12.82;11.65;;;20.60;99.90;;;;;;5072672;28;20272;-87
2022/08/28 09:03:04;;;;;;;11.80;10.63;;;20.70;99.90;;;;;;5072757;28;20293;-87
2022/08/28 09:05:47;;;;;;;11.80;10.70;;;20.80;99.90;;;;;;5072447;28;20300;-87
2022/08/28 09:08:25;;;;;;;14.82;9.27;;;20.80;99.90;;;;;;5072339;28;20208;-86
2022/08/28 09:11:00;;;;;;;10.40;9.38;;;20.80;99.90;;;;;;5072321;28;20233;-87
2022/08/28 09:13:37;;;;;;;9.82;9.02;;;20.80;99.90;;;;;;5072451;28;20287;-87
2022/08/28 09:16:16;;;;;;;8.98;8.25;;;20.90;99.90;;;;;;5072689;28;20288;-87
2022/08/28 09:18:45;;;;;;;9.40;8.52;;;20.90;99.90;;;;;;5072151;28;20209;-87
2022/08/28 09:21:25;;;;;;;9.25;8.30;;;20.90;99.90;;;;;;5072463;28;20205;-86
2022/08/28 09:24:01;;;;;;;9.10;8.30;;;21.00;99.90;;;;;;5072307;28;20212;-87
2022/08/28 09:26:34;;;;;;;7.80;6.93;;;21.10;99.90;;;;;;5072511;28;20201;-87
2022/08/28 09:29:05;;;;;;;7.00;6.40;;;21.30;99.90;;;;;;5072351;28;20209;-88
2022/08/28 09:31:39;;;;;;;6.28;5.65;;;21.30;99.90;;;;;;5071816;28;20305;-86
2022/08/28 09:34:26;;;;;;;7.75;6.78;;;21.50;99.90;;;;;;5072302;28;20211;-86
2022/08/28 09:36:56;;;;;;;6.30;5.78;;;21.70;99.90;;;;;;5072200;28;20207;-87
2022/08/28 09:39:26;;;;;;;6.55;6.05;;;22.00;99.90;;;;;;5072023;28;20209;-87
2022/08/28 09:45:05;;;;;;;4.43;4.10;;;23.10;99.90;;;;;;5072434;28;20262;-87
2022/08/28 09:47:44;;;;;;;5.22;4.82;;;23.90;99.90;;;;;;5075411;28;20209;-87
2022/08/28 09:50:33;;;;;;;4.72;4.43;;;24.40;99.90;;;;;;5076800;28;20221;-87
2022/08/28 09:53:18;;;;;;;3.30;3.10;;;24.60;99.90;;;;;;5078274;28;20225;-87
2022/08/28 09:55:55;;;;;;;3.22;3.03;;;24.70;99.90;;;;;;5100047;28;20189;-88
2022/08/28 09:58:32;;;;;;;3.70;3.45;;;25.20;99.90;;;;;;5090406;28;20264;-88
2022/08/28 10:01:10;;;;;;;3.85;3.55;;;25.60;99.90;;;;;;5076560;28;20279;-88
2022/08/28 10:03:45;;;;;;;4.20;3.20;;;26.00;99.90;;;;;;5075683;28;20205;-87
2022/08/28 10:06:21;;;;;;;2.45;2.35;;;26.30;99.90;;;;;;5075332;28;20203;-87
2022/08/28 10:09:06;;;;;;;3.28;3.08;;;26.60;99.90;;;;;;5075049;28;20284;-88
2022/08/28 10:11:43;;;;;;;2.88;2.67;;;26.80;99.90;;;;;;5075297;28;20235;-87
2022/08/28 10:14:25;;;;;;;3.13;2.83;;;26.90;99.90;;;;;;5075434;28;20201;-88
2022/08/28 10:17:01;;;;;;;1.83;1.63;;;27.20;99.90;;;;;;5075153;28;20215;-87
2022/08/28 10:19:42;;;;;;;1.27;1.27;;;27.50;99.90;;;;;;5075064;28;20211;-88
2022/08/28 10:22:20;;;;;;;1.10;1.10;;;27.40;99.90;;;;;;5075378;28;20290;-88
2022/08/28 10:25:02;;;;;;;1.38;1.38;;;27.30;99.90;;;;;;5075232;28;20201;-87
2022/08/28 10:27:47;;;;;;;1.67;1.58;;;27.40;99.90;;;;;;5075294;28;20229;-88
2022/08/28 10:30:18;;;;;;;1.15;1.15;;;27.90;99.90;;;;;;5074933;28;20310;-88
2022/08/28 10:33:01;;;;;;;0.85;0.85;;;28.10;99.90;;;;;;5075270;28;20320;-87
2022/08/28 10:35:43;;;;;;;1.65;1.55;;;28.50;99.90;;;;;;5078006;28;20300;-87
2022/08/28 10:38:15;;;;;;;2.15;2.05;;;28.90;99.90;;;;;;5075074;28;20284;-88
2022/08/28 10:40:53;;;;;;;2.97;2.78;;;29.20;99.90;;;;;;5075225;28;20201;-88
2022/08/28 10:43:30;;;;;;;2.42;2.28;;;29.40;99.90;;;;;;5074950;28;20229;-88
2022/08/28 10:46:03;;;;;;;1.90;1.80;;;29.00;99.90;;;;;;5075236;28;20266;-88
2022/08/28 10:48:39;;;;;;;1.70;1.60;;;29.10;99.90;;;;;;5074628;28;20211;-88
2022/08/28 10:51:17;;;;;;;1.40;1.40;;;29.20;99.90;;;;;;5074428;28;20248;-88
2022/08/28 10:53:50;;;;;;;2.05;1.95;;;29.00;99.90;;;;;;5074549;28;20209;-88
2022/08/28 10:56:22;;;;;;;2.25;2.15;;;28.70;99.90;;;;;;5074655;28;20232;-88
2022/08/28 10:58:56;;;;;;;2.45;2.33;;;28.70;99.90;;;;;;5074007;28;20209;-88
2022/08/28 11:01:29;;;;;;;2.58;2.38;;;28.10;99.90;;;;;;5074884;28;20213;-88
2022/08/28 11:04:00;;;;;;;2.63;2.42;;;28.10;99.90;;;;;;5074748;28;20292;-89
2022/08/28 11:06:35;;;;;;;2.33;2.20;;;28.60;99.90;;;;;;5074443;28;20235;-88
2022/08/28 11:11:55;;;;;;;3.47;2.72;;;29.30;99.90;;;;;;5074065;28;20305;-88
2022/08/28 11:14:34;;;;;;;2.70;2.50;;;29.60;99.90;;;;;;5074510;28;20269;-88
2022/08/28 11:17:40;;;;;;;3.08;2.88;;;30.30;99.90;;;;;;5074012;28;20230;-88
2022/08/28 11:20:15;;;;;;;2.38;2.28;;;30.50;99.90;;;;;;5074188;28;20264;-89
2022/08/28 11:22:49;;;;;;;3.20;3.00;;;30.70;99.90;;;;;;5074049;28;20224;-88
2022/08/28 11:25:23;;;;;;;2.72;2.53;;;31.10;99.90;;;;;;5075130;28;20239;-88
2022/08/28 11:28:18;;;;;;;3.10;2.90;;;30.80;99.90;;;;;;5074591;28;20209;-88
2022/08/28 11:30:49;;;;;;;3.95;2.72;;;29.80;99.90;;;;;;5074481;28;20251;-88
2022/08/28 11:33:39;;;;;;;2.97;2.78;;;29.40;99.90;;;;;;5074318;28;20225;-89
2022/08/28 11:36:11;;;;;;;4.05;3.63;;;29.50;99.90;;;;;;5074607;28;20201;-88
2022/08/28 11:39:20;;;;;;;3.67;3.38;;;29.60;99.90;;;;;;5074098;28;20248;-88
2022/08/28 11:42:30;;;;;;;3.08;2.88;;;30.20;99.90;;;;;;5074155;28;20226;-88
2022/08/28 11:44:59;;;;;;;4.75;3.83;;;30.40;99.90;;;;;;5074090;28;20208;-88
2022/08/28 11:47:55;;;;;;;3.70;3.40;;;30.10;99.90;;;;;;5079632;28;20212;-88
2022/08/28 11:50:30;;;;;;;3.33;3.13;;;30.10;99.90;;;;;;5077978;28;20273;-87
2022/08/28 11:53:20;;;;;;;3.70;3.40;;;30.30;99.90;;;;;;5074034;28;20284;-88
2022/08/28 11:56:25;;;;;;;4.25;2.70;;;30.60;99.90;;;;;;5073552;28;20291;-87
2022/08/28 11:59:12;;;;;;;3.05;2.85;;;30.80;99.90;;;;;;5052890;28;20205;-87
2022/08/28 12:01:41;;;;;;;3.72;3.30;;;30.40;99.90;;;;;;5073131;28;20225;-88
2022/08/28 12:04:12;;;;;;;3.58;3.28;;;29.90;99.90;;;;;;5073406;28;20247;-88
2022/08/28 12:06:48;;;;;;;3.95;3.55;;;29.40;99.90;;;;;;5073187;28;20201;-87
2022/08/28 12:09:42;;;;;;;3.92;3.63;;;29.40;99.90;;;;;;5071860;28;20269;-88
2022/08/28 12:12:52;;;;;;;2.97;2.78;;;29.20;99.90;;;;;;5073023;28;20231;-87
2022/08/28 12:15:42;;;;;;;3.17;2.97;;;29.50;99.90;;;;;;5073961;28;20213;-88
2022/08/28 12:18:42;;;;;;;3.10;2.90;;;29.90;99.90;;;;;;5073842;28;20205;-88
2022/08/28 12:21:16;;;;;;;2.97;2.78;;;30.00;99.90;;;;;;5076267;28;20197;-87
2022/08/28 12:23:55;;;;;;;3.80;3.50;;;30.00;99.90;;;;;;5074829;28;20230;-88
2022/08/28 12:26:28;;;;;;;3.30;3.08;;;29.70;99.90;;;;;;5076615;28;20205;-87
2022/08/28 12:29:01;;;;;;;3.15;2.95;;;29.70;99.90;;;;;;5073927;28;20227;-87
2022/08/28 12:34:42;;;;;;;3.22;3.03;;;29.60;99.90;;;;;;5074145;28;20288;-88
2022/08/28 12:37:32;;;;;;;3.90;3.40;;;29.80;99.90;;;;;;5073918;28;20283;-87
2022/08/28 12:40:22;;;;;;;3.45;3.17;;;29.70;99.90;;;;;;5075625;28;20213;-88
2022/08/28 12:42:54;;;;;;;4.68;3.25;;;29.60;99.90;;;;;;5073437;28;20250;-88
2022/08/28 12:45:30;;;;;;;3.17;2.97;;;29.50;99.90;;;;;;5075275;28;20297;-87
2022/08/28 12:48:02;;;;;;;2.97;2.78;;;29.60;99.90;;;;;;5073744;28;20239;-87
2022/08/28 12:50:36;;;;;;;4.05;2.97;;;29.40;99.90;;;;;;5076699;28;20239;-88
2022/08/28 12:53:06;;;;;;;4.45;3.08;;;29.50;99.90;;;;;;5072495;28;20237;-88
2022/08/28 12:55:37;;;;;;;3.80;3.47;;;29.90;99.90;;;;;;5073711;28;20288;-88
2022/08/28 12:58:11;;;;;;;3.75;3.38;;;29.90;99.90;;;;;;5073351;28;20237;-88
2022/08/28 13:00:52;;;;;;;3.97;3.63;;;29.70;99.90;;;;;;5073219;28;20205;-87
2022/08/28 13:03:21;;;;;;;2.85;2.65;;;29.40;99.90;;;;;;5072921;28;20255;-87
2022/08/28 13:05:58;;;;;;;3.20;3.00;;;29.30;99.90;;;;;;5072917;28;20227;-87
2022/08/28 13:08:27;;;;;;;3.70;3.40;;;29.60;99.90;;;;;;5072675;28;20208;-87
2022/08/28 13:10:55;;;;;;;3.80;3.42;;;29.60;99.90;;;;;;5072552;28;20220;-88
2022/08/28 13:13:33;;;;;;;3.38;3.17;;;29.50;99.90;;;;;;5072005;28;20263;-87
2022/08/28 13:16:04;;;;;;;3.45;3.22;;;29.20;99.90;;;;;;5072537;28;20276;-87
2022/08/28 13:18:48;;;;;;;3.35;3.05;;;28.90;99.90;;;;;;5072660;28;20225;-88
2022/08/28 13:21:27;;;;;;;3.35;3.05;;;28.50;99.90;;;;;;5074802;28;20236;-88
2022/08/28 13:24:37;;;;;;;3.60;3.30;;;28.50;99.90;;;;;;5076521;28;20295;-87
2022/08/28 13:27:18;;;;;;;3.70;3.40;;;28.50;99.90;;;;;;5076542;28;20213;-87
2022/08/28 13:30:00;;;;;;;4.10;3.20;;;28.00;99.90;;;;;;5077727;28;20288;-87
2022/08/28 13:32:30;;;;;;;4.30;3.90;;;27.70;99.90;;;;;;5078150;28;20224;-88